Time;durP1;ratioP1;P1;durP2;ratioP2;P2;SDS_P1;SDS_P2;PMS_P1;PMS_P2;Temp;Humidity;BMP_temperature;BMP_pressure;BME280_temperature;BME280_humidity;BME280_pressure;Samples;Min_cycle;Max_cycle;Signal;HPM_P1;HPM_P2
2022/03/20 00:01:43;;;;;;;75.82;52.97;;;17.70;48.60;;;;;;4993373;28;91464;-74
2022/03/20 00:04:09;;;;;;;74.70;52.47;;;17.70;48.60;;;;;;4987834;28;91080;-74
2022/03/20 00:06:34;;;;;;;74.63;52.33;;;17.70;49.30;;;;;;4989198;28;91237;-74
2022/03/20 00:09:00;;;;;;;75.20;52.67;;;17.70;48.80;;;;;;4985426;28;90914;-74
2022/03/20 00:11:28;;;;;;;76.90;52.58;;;17.60;48.80;;;;;;4988175;28;91468;-74
2022/03/20 00:13:54;;;;;;;76.22;53.00;;;17.60;48.80;;;;;;4984349;28;90400;-73
2022/03/20 00:16:23;;;;;;;75.03;52.88;;;17.60;48.90;;;;;;4978291;28;93993;-74
2022/03/20 00:18:49;;;;;;;76.55;53.05;;;17.60;48.90;;;;;;4978669;28;90239;-74
2022/03/20 00:21:14;;;;;;;74.40;52.67;;;17.50;48.90;;;;;;4988521;28;93500;-74
2022/03/20 00:23:40;;;;;;;72.75;51.83;;;17.50;49.60;;;;;;4983037;28;91999;-73
2022/03/20 00:26:06;;;;;;;74.07;52.90;;;17.50;49.00;;;;;;4983180;28;89733;-74
2022/03/20 00:28:32;;;;;;;72.60;51.83;;;17.50;49.00;;;;;;4980436;28;90183;-73
2022/03/20 00:30:58;;;;;;;73.13;51.97;;;17.40;49.00;;;;;;4980942;28;91320;-73
2022/03/20 00:33:24;;;;;;;76.30;52.17;;;17.50;49.10;;;;;;4985829;28;91319;-74
2022/03/20 00:35:50;;;;;;;75.05;52.28;;;17.50;49.10;;;;;;4990584;28;90403;-73
2022/03/20 00:38:16;;;;;;;73.78;52.10;;;17.50;49.10;;;;;;4987960;28;90682;-73
2022/03/20 00:40:43;;;;;;;74.07;52.10;;;17.40;49.10;;;;;;4965489;28;90247;-74
2022/03/20 00:43:09;;;;;;;73.95;52.05;;;17.40;49.10;;;;;;4986696;28;90955;-73
2022/03/20 00:45:35;;;;;;;73.30;51.83;;;17.40;49.20;;;;;;4988020;28;90244;-74
2022/03/20 00:48:02;;;;;;;71.50;51.55;;;17.30;49.20;;;;;;4979190;28;89772;-73
2022/03/20 00:50:28;;;;;;;74.72;51.83;;;17.30;49.20;;;;;;4980057;28;91549;-73
2022/03/20 00:52:54;;;;;;;71.45;51.47;;;17.30;49.30;;;;;;4983493;28;89816;-73
2022/03/20 00:55:20;;;;;;;72.97;51.78;;;17.30;49.30;;;;;;4983818;28;92406;-74
2022/03/20 00:57:46;;;;;;;73.07;51.58;;;17.30;49.30;;;;;;4987165;28;91823;-73
2022/03/20 01:00:12;;;;;;;74.45;51.63;;;17.20;49.30;;;;;;4986725;28;91513;-74
2022/03/20 01:02:42;;;;;;;72.70;51.72;;;17.20;49.30;;;;;;4992000;28;89889;-73
2022/03/20 01:05:08;;;;;;;75.38;51.75;;;17.20;49.30;;;;;;4981008;28;94785;-74
2022/03/20 01:07:36;;;;;;;72.57;51.38;;;17.20;49.40;;;;;;4981595;28;89944;-73
2022/03/20 01:10:04;;;;;;;73.07;51.42;;;17.10;49.40;;;;;;4984018;28;91580;-73
2022/03/20 01:12:30;;;;;;;71.38;51.17;;;17.10;49.50;;;;;;4980007;28;92823;-74
2022/03/20 01:14:55;;;;;;;72.30;51.08;;;17.10;49.40;;;;;;4975899;28;90109;-73
2022/03/20 01:17:21;;;;;;;71.90;51.47;;;17.10;49.50;;;;;;4984193;28;91902;-73
2022/03/20 01:19:47;;;;;;;72.88;51.15;;;17.10;49.50;;;;;;4988129;28;89978;-73
2022/03/20 01:22:12;;;;;;;72.63;51.33;;;17.10;49.60;;;;;;4979714;28;91223;-73
2022/03/20 01:24:38;;;;;;;70.03;51.00;;;17.00;49.50;;;;;;4980486;28;93927;-73
2022/03/20 01:27:04;;;;;;;71.32;51.15;;;17.00;49.60;;;;;;4988051;28;89972;-73
2022/03/20 01:29:30;;;;;;;70.70;50.97;;;17.00;49.50;;;;;;4983094;28;90393;-73
2022/03/20 01:31:56;;;;;;;71.53;51.40;;;17.00;49.60;;;;;;4983944;28;91389;-73
2022/03/20 01:34:21;;;;;;;71.97;51.38;;;16.90;49.70;;;;;;4976093;28;90372;-73
2022/03/20 01:36:47;;;;;;;70.60;50.83;;;17.00;49.70;;;;;;4984320;28;96318;-73
2022/03/20 01:39:15;;;;;;;70.43;50.90;;;16.90;49.60;;;;;;4979208;28;89889;-73
2022/03/20 01:41:40;;;;;;;70.65;51.08;;;16.90;49.70;;;;;;4990736;28;93095;-73
2022/03/20 01:44:06;;;;;;;71.97;51.03;;;16.90;49.60;;;;;;4980406;28;92599;-73
2022/03/20 01:46:32;;;;;;;71.55;51.20;;;16.80;49.50;;;;;;4984555;28;90558;-75
2022/03/20 01:48:58;;;;;;;69.82;50.63;;;16.90;49.60;;;;;;4976687;28;89629;-75
2022/03/20 01:52:10;;;;;;;70.80;51.05;;;16.90;49.70;;;;;;4978340;28;94405;-75
2022/03/20 01:54:13;;;;;;;68.97;50.58;;;16.80;49.70;;;;;;4977910;28;92327;-75
2022/03/20 01:56:49;;;;;;;70.22;50.58;;;16.90;49.70;;;;;;4981493;28;90764;-75
2022/03/20 01:59:16;;;;;;;71.57;50.72;;;16.90;49.70;;;;;;4990059;28;89807;-75
2022/03/20 02:01:42;;;;;;;70.80;50.72;;;16.90;49.70;;;;;;4986251;28;90357;-75
2022/03/20 02:04:15;;;;;;;71.45;50.80;;;16.90;49.70;;;;;;4987347;27;89840;-75
2022/03/20 02:06:44;;;;;;;70.85;50.38;;;16.90;49.60;;;;;;4980554;28;89555;-75
2022/03/20 02:09:11;;;;;;;70.28;50.65;;;17.00;49.50;;;;;;4977929;28;90036;-76
2022/03/20 02:11:36;;;;;;;69.00;50.20;;;17.00;49.50;;;;;;4987144;28;95207;-75
2022/03/20 02:14:04;;;;;;;72.00;50.50;;;17.00;49.40;;;;;;4986227;28;95220;-75
2022/03/20 02:16:30;;;;;;;73.35;50.53;;;17.10;49.40;;;;;;4982712;27;90983;-75
2022/03/20 02:18:55;;;;;;;70.13;50.60;;;17.10;49.40;;;;;;4979625;28;89729;-75
2022/03/20 02:21:43;;;;;;;70.20;50.75;;;17.10;49.30;;;;;;4979537;28;90145;-75
2022/03/20 02:24:28;;;;;;;70.80;50.45;;;17.10;49.20;;;;;;4977982;28;92333;-75
2022/03/20 02:27:12;;;;;;;68.90;50.33;;;17.10;49.20;;;;;;4979048;28;90975;-75
2022/03/20 02:29:39;;;;;;;69.65;50.28;;;17.10;49.10;;;;;;4981664;28;89995;-75
2022/03/20 02:32:06;;;;;;;69.55;50.63;;;17.10;49.10;;;;;;4976610;28;92188;-75
2022/03/20 02:34:32;;;;;;;69.75;50.47;;;17.10;49.10;;;;;;4984316;28;89879;-75
2022/03/20 02:36:59;;;;;;;69.68;50.25;;;17.10;49.20;;;;;;4989326;28;90288;-76
2022/03/20 02:39:24;;;;;;;68.03;49.72;;;17.10;49.00;;;;;;4987771;28;92651;-75
2022/03/20 02:41:51;;;;;;;69.65;50.08;;;17.10;49.00;;;;;;4979953;28;90516;-75
2022/03/20 02:44:17;;;;;;;68.93;50.15;;;17.10;49.10;;;;;;4981956;28;92731;-76
2022/03/20 02:46:43;;;;;;;68.35;50.03;;;17.10;49.00;;;;;;4980347;28;90544;-76
2022/03/20 02:49:10;;;;;;;68.28;49.88;;;17.10;49.10;;;;;;4986888;28;90091;-75
2022/03/20 02:51:36;;;;;;;69.18;49.85;;;17.00;49.00;;;;;;4978239;28;91298;-75
2022/03/20 02:54:05;;;;;;;69.07;49.88;;;17.00;49.00;;;;;;4981580;28;95792;-75
2022/03/20 02:56:32;;;;;;;68.82;50.03;;;17.00;49.00;;;;;;4975006;28;90971;-75
2022/03/20 02:58:58;;;;;;;68.47;50.15;;;17.00;49.10;;;;;;4982563;28;91075;-75
2022/03/20 03:01:24;;;;;;;69.07;49.70;;;17.00;49.10;;;;;;4990029;28;90698;-75
2022/03/20 03:03:50;;;;;;;69.15;49.80;;;17.00;49.20;;;;;;4981728;28;96690;-75
2022/03/20 03:06:16;;;;;;;68.50;49.53;;;17.00;49.10;;;;;;4990508;28;91101;-75
2022/03/20 03:11:26;;;;;;;69.07;49.85;;;16.90;49.10;;;;;;4987844;28;89977;-75
2022/03/20 03:13:51;;;;;;;68.88;50.10;;;16.90;49.10;;;;;;4987452;28;94179;-75
2022/03/20 03:16:17;;;;;;;68.70;49.72;;;16.90;49.10;;;;;;4986963;28;96157;-74
2022/03/20 03:18:48;;;;;;;69.90;50.00;;;16.80;49.10;;;;;;4991969;28;89040;-75
2022/03/20 03:21:16;;;;;;;70.07;49.88;;;16.80;49.10;;;;;;4983241;28;92792;-75
2022/03/20 03:23:43;;;;;;;67.53;49.42;;;16.80;49.20;;;;;;4986517;28;90487;-75
2022/03/20 03:26:10;;;;;;;68.47;49.80;;;16.80;49.30;;;;;;4975349;27;93886;-75
2022/03/20 03:28:36;;;;;;;69.85;50.00;;;16.80;49.30;;;;;;4991402;28;93520;-75
2022/03/20 03:31:07;;;;;;;68.82;49.72;;;16.70;49.30;;;;;;4981303;28;90855;-74
2022/03/20 03:33:34;;;;;;;68.43;50.08;;;16.70;49.30;;;;;;4980282;28;91653;-74
2022/03/20 03:36:01;;;;;;;68.53;49.95;;;16.70;49.30;;;;;;4977956;28;90354;-75
2022/03/20 03:38:35;;;;;;;69.22;49.90;;;16.70;49.40;;;;;;4987958;28;90550;-75
2022/03/20 03:41:02;;;;;;;67.65;49.47;;;16.60;49.30;;;;;;4983099;28;90791;-75
2022/03/20 03:43:28;;;;;;;69.35;49.85;;;16.60;49.30;;;;;;4991679;28;89470;-75
2022/03/20 03:45:54;;;;;;;69.43;49.65;;;16.60;49.40;;;;;;4985715;28;89713;-75
2022/03/20 03:48:20;;;;;;;68.82;49.72;;;16.60;49.80;;;;;;4983335;28;90198;-75
2022/03/20 03:50:48;;;;;;;68.15;49.83;;;16.60;50.10;;;;;;4987743;28;94529;-75
2022/03/20 03:53:14;;;;;;;68.75;49.95;;;16.60;50.20;;;;;;4989026;28;91314;-75
2022/03/20 03:55:44;;;;;;;70.18;50.10;;;16.60;49.50;;;;;;4981299;28;90573;-74
2022/03/20 03:58:15;;;;;;;68.68;49.75;;;16.60;49.60;;;;;;4986988;28;91584;-75
2022/03/20 04:00:41;;;;;;;67.70;49.60;;;16.60;49.60;;;;;;4991472;28;91482;-75
2022/03/20 04:03:07;;;;;;;68.75;49.95;;;16.70;49.60;;;;;;4988828;28;90328;-75
2022/03/20 04:05:34;;;;;;;70.03;49.75;;;16.70;49.50;;;;;;4975918;28;96175;-75
2022/03/20 04:08:01;;;;;;;68.00;49.53;;;16.70;50.00;;;;;;4980889;28;90235;-75
2022/03/20 04:10:27;;;;;;;67.93;49.78;;;16.70;49.40;;;;;;4986996;28;91266;-75
2022/03/20 04:12:53;;;;;;;68.25;49.33;;;16.70;49.30;;;;;;4988073;28;91939;-75
2022/03/20 04:15:25;;;;;;;69.43;49.70;;;16.70;49.30;;;;;;4975817;28;91699;-76
2022/03/20 04:17:51;;;;;;;67.22;49.75;;;16.70;49.30;;;;;;4994577;28;90787;-75
2022/03/20 04:20:17;;;;;;;67.40;49.45;;;16.80;49.40;;;;;;4976090;28;91673;-75
2022/03/20 04:23:42;;;;;;;68.38;49.83;;;16.70;49.30;;;;;;4982559;28;90120;-75
2022/03/20 04:25:29;;;;;;;69.40;49.92;;;16.80;49.30;;;;;;4986728;28;90900;-75
2022/03/20 04:27:56;;;;;;;67.70;49.72;;;16.80;49.30;;;;;;4986208;27;90634;-74
2022/03/20 04:30:25;;;;;;;68.65;50.03;;;16.80;49.30;;;;;;4998161;27;91075;-74
2022/03/20 04:32:51;;;;;;;67.88;49.63;;;16.70;49.80;;;;;;4988279;28;89478;-75
2022/03/20 04:35:17;;;;;;;67.63;49.60;;;16.70;49.10;;;;;;4981986;28;94839;-75
2022/03/20 04:37:44;;;;;;;67.15;49.65;;;16.70;49.20;;;;;;4987835;28;90377;-75
2022/03/20 04:40:10;;;;;;;68.18;49.88;;;16.70;49.10;;;;;;4975336;28;91122;-75
2022/03/20 04:42:36;;;;;;;66.80;49.50;;;16.70;49.10;;;;;;4987097;28;91902;-75
2022/03/20 04:45:04;;;;;;;68.07;50.05;;;16.70;49.00;;;;;;4987229;28;89799;-74
2022/03/20 04:58:29;;;;;;;69.55;50.00;;;16.60;49.30;;;;;;4983505;28;89649;-74
2022/03/20 05:00:55;;;;;;;68.53;50.05;;;16.60;49.20;;;;;;4981158;28;91567;-74
2022/03/20 05:03:22;;;;;;;68.30;50.25;;;16.60;49.20;;;;;;4982112;28;92679;-75
2022/03/20 05:05:47;;;;;;;67.47;49.75;;;16.60;49.40;;;;;;4982069;28;92244;-74
2022/03/20 05:08:13;;;;;;;68.00;49.88;;;16.60;49.50;;;;;;4987156;28;91145;-73
2022/03/20 05:13:24;;;;;;;67.88;49.95;;;16.70;49.60;;;;;;4977060;28;90302;-74
2022/03/20 05:15:52;;;;;;;68.28;50.25;;;16.80;49.60;;;;;;4980961;28;90609;-74
2022/03/20 05:18:19;;;;;;;68.65;50.17;;;16.90;49.70;;;;;;4986683;28;91908;-74
2022/03/20 05:20:45;;;;;;;68.03;50.17;;;16.90;49.60;;;;;;4976852;28;93162;-74
2022/03/20 05:23:11;;;;;;;68.10;50.38;;;17.00;49.50;;;;;;4987431;28;91891;-74
2022/03/20 05:25:37;;;;;;;67.93;50.08;;;17.10;49.40;;;;;;4985493;28;89527;-74
2022/03/20 05:28:04;;;;;;;68.60;50.45;;;17.20;49.30;;;;;;4985706;28;90633;-74
2022/03/20 05:30:30;;;;;;;67.65;50.05;;;17.30;49.20;;;;;;4965920;28;91980;-74
2022/03/20 05:32:56;;;;;;;68.32;50.45;;;17.30;49.10;;;;;;4977946;28;91135;-74
2022/03/20 05:35:22;;;;;;;68.45;50.60;;;17.40;48.90;;;;;;4980436;27;91364;-74
2022/03/20 05:37:48;;;;;;;68.78;50.38;;;17.40;48.90;;;;;;4989905;28;89969;-74
2022/03/20 05:40:15;;;;;;;67.78;49.83;;;17.50;48.90;;;;;;4982686;28;90006;-74
2022/03/20 05:42:42;;;;;;;68.68;49.75;;;17.50;48.60;;;;;;4985073;28;91943;-74
2022/03/20 05:45:10;;;;;;;67.57;49.95;;;17.60;49.30;;;;;;4988455;28;89895;-74
2022/03/20 05:47:37;;;;;;;67.75;49.88;;;17.60;48.60;;;;;;4984776;28;94682;-74
2022/03/20 05:50:04;;;;;;;68.80;50.55;;;17.70;48.70;;;;;;4983100;28;91442;-74
2022/03/20 05:52:31;;;;;;;67.80;49.88;;;17.80;48.40;;;;;;4985878;28;91318;-74
2022/03/20 05:54:57;;;;;;;68.43;50.40;;;17.80;48.20;;;;;;4983915;28;90677;-74
2022/03/20 06:00:16;;;;;;;67.47;49.80;;;17.90;48.20;;;;;;4983589;28;92854;-74
2022/03/20 06:02:45;;;;;;;67.45;50.08;;;18.00;48.00;;;;;;4990350;28;92798;-75
2022/03/20 06:05:11;;;;;;;67.85;50.10;;;18.00;47.90;;;;;;4992992;28;91195;-75
2022/03/20 06:07:44;;;;;;;68.35;50.63;;;18.00;47.90;;;;;;4978892;27;91395;-74
2022/03/20 06:10:14;;;;;;;67.88;50.28;;;18.00;47.80;;;;;;4985407;28;90245;-74
2022/03/20 06:12:40;;;;;;;68.35;49.90;;;18.10;47.90;;;;;;4985990;28;90683;-74
2022/03/20 06:15:10;;;;;;;69.13;49.65;;;18.20;47.70;;;;;;4986379;28;91677;-74
2022/03/20 06:17:37;;;;;;;67.25;50.17;;;18.10;47.40;;;;;;4987543;28;96618;-74
2022/03/20 06:20:05;;;;;;;68.85;50.40;;;18.10;47.50;;;;;;4982014;28;92121;-74
2022/03/20 06:22:31;;;;;;;69.07;50.20;;;18.10;47.50;;;;;;4988024;28;93998;-74
2022/03/20 06:24:56;;;;;;;68.22;50.33;;;18.10;47.50;;;;;;4989598;28;91286;-74
2022/03/20 06:27:22;;;;;;;68.72;50.13;;;18.10;47.50;;;;;;4981259;28;90464;-74
2022/03/20 06:29:47;;;;;;;67.07;49.83;;;18.10;47.50;;;;;;4981239;28;90311;-74
2022/03/20 06:32:14;;;;;;;68.63;50.58;;;18.10;47.50;;;;;;4983822;28;96047;-74
2022/03/20 06:34:40;;;;;;;68.30;50.25;;;18.10;47.70;;;;;;4979615;28;89961;-75
2022/03/20 06:37:05;;;;;;;69.05;50.63;;;18.10;47.80;;;;;;4994814;28;89216;-74
2022/03/20 06:39:31;;;;;;;67.82;50.35;;;18.20;47.90;;;;;;4977151;28;93352;-74
2022/03/20 06:41:57;;;;;;;69.82;51.15;;;18.30;47.80;;;;;;4985314;28;90514;-74
2022/03/20 06:44:22;;;;;;;68.07;50.20;;;18.30;47.50;;;;;;4987127;28;91128;-74
2022/03/20 06:46:48;;;;;;;69.47;50.28;;;18.30;47.30;;;;;;4980940;28;90320;-75
2022/03/20 06:49:13;;;;;;;69.97;50.90;;;18.40;47.40;;;;;;4990742;28;91048;-74
2022/03/20 06:51:39;;;;;;;69.60;50.45;;;18.40;47.30;;;;;;4989549;28;90647;-75
2022/03/20 06:54:07;;;;;;;69.18;50.75;;;18.50;47.30;;;;;;4989166;28;91460;-74
2022/03/20 06:56:32;;;;;;;70.72;51.20;;;18.50;47.10;;;;;;4978642;28;90339;-75
2022/03/20 06:58:58;;;;;;;68.28;49.95;;;18.50;47.10;;;;;;4974268;28;92603;-74
2022/03/20 07:01:24;;;;;;;69.63;50.80;;;18.60;47.10;;;;;;4971505;28;92774;-74
2022/03/20 07:03:50;;;;;;;68.93;50.25;;;18.60;47.00;;;;;;4986677;28;90547;-74
2022/03/20 07:06:15;;;;;;;69.10;50.47;;;18.70;47.10;;;;;;4983852;28;90140;-73
2022/03/20 07:08:41;;;;;;;69.50;51.00;;;18.70;47.10;;;;;;4991045;28;91227;-73
2022/03/20 07:11:06;;;;;;;68.63;50.75;;;18.60;46.80;;;;;;4989276;28;92342;-73
2022/03/20 07:13:52;;;;;;;68.78;50.50;;;18.70;47.00;;;;;;4986689;28;89619;-73
2022/03/20 07:16:19;;;;;;;69.85;50.97;;;18.70;46.90;;;;;;4975511;28;91489;-73
2022/03/20 07:18:46;;;;;;;70.13;50.90;;;18.70;46.70;;;;;;4983863;28;92172;-74
2022/03/20 07:21:13;;;;;;;69.53;50.78;;;18.70;46.80;;;;;;4973038;28;92851;-72
2022/03/20 07:23:39;;;;;;;68.85;50.80;;;18.60;46.80;;;;;;4991457;28;90708;-73
2022/03/20 07:31:33;;;;;;;69.50;51.03;;;18.70;46.70;;;;;;4988265;28;90723;-74
2022/03/20 07:33:59;;;;;;;69.10;50.63;;;18.70;46.70;;;;;;4982995;28;90542;-73
2022/03/20 07:36:24;;;;;;;68.60;50.65;;;18.60;46.70;;;;;;4976363;28;91688;-74
2022/03/20 07:38:50;;;;;;;69.65;51.00;;;18.60;46.80;;;;;;4979653;28;93504;-74
2022/03/20 07:41:16;;;;;;;69.88;51.17;;;18.60;46.70;;;;;;4976554;28;90327;-74
2022/03/20 07:43:42;;;;;;;69.93;50.97;;;18.60;46.80;;;;;;4974192;28;92968;-74
2022/03/20 07:46:08;;;;;;;69.93;51.33;;;18.60;46.80;;;;;;4990591;28;89724;-74
2022/03/20 07:48:34;;;;;;;69.05;51.25;;;18.60;46.90;;;;;;4980722;28;90058;-74
2022/03/20 07:51:00;;;;;;;71.68;50.85;;;18.50;46.80;;;;;;4988477;28;93111;-74
2022/03/20 07:53:26;;;;;;;67.65;50.33;;;18.50;46.80;;;;;;4979628;28;90520;-74
2022/03/20 07:55:52;;;;;;;69.53;51.42;;;18.50;46.80;;;;;;4981541;28;91148;-75
2022/03/20 07:58:19;;;;;;;70.10;51.50;;;18.50;46.80;;;;;;4977496;28;92601;-72
2022/03/20 08:00:48;;;;;;;68.65;50.60;;;18.40;46.90;;;;;;4968998;27;95367;-74
2022/03/20 08:03:15;;;;;;;69.65;51.28;;;18.40;46.80;;;;;;4971206;28;92116;-72
2022/03/20 08:05:40;;;;;;;68.22;50.65;;;18.40;46.70;;;;;;4971228;28;95362;-75
2022/03/20 08:08:11;;;;;;;69.03;51.13;;;18.30;47.00;;;;;;4982517;28;90897;-74
2022/03/20 08:10:36;;;;;;;69.55;50.83;;;18.30;46.70;;;;;;4974408;28;92134;-74
2022/03/20 08:13:02;;;;;;;70.25;51.33;;;18.30;46.90;;;;;;4981686;28;94515;-72
2022/03/20 08:15:27;;;;;;;69.43;50.92;;;18.20;46.90;;;;;;4979884;28;90098;-73
2022/03/20 08:17:53;;;;;;;71.05;51.40;;;18.20;47.10;;;;;;4986307;28;93038;-72
2022/03/20 08:20:19;;;;;;;69.47;51.30;;;18.20;47.10;;;;;;4981299;28;90889;-72
2022/03/20 08:22:45;;;;;;;69.25;50.47;;;18.10;47.10;;;;;;4977627;28;91352;-72
2022/03/20 08:25:11;;;;;;;70.40;51.40;;;18.10;47.20;;;;;;4987353;28;89891;-73
2022/03/20 08:27:50;;;;;;;70.47;51.72;;;18.10;47.20;;;;;;4979476;28;90566;-74
2022/03/20 08:30:17;;;;;;;70.75;51.75;;;18.10;47.10;;;;;;4980066;28;90358;-73
2022/03/20 08:32:47;;;;;;;72.95;52.17;;;18.00;47.10;;;;;;4988150;28;90762;-73
2022/03/20 08:35:14;;;;;;;71.65;52.25;;;18.00;47.20;;;;;;4979169;28;90913;-73
2022/03/20 08:37:48;;;;;;;71.88;52.28;;;18.00;47.40;;;;;;4972456;28;90778;-72
2022/03/20 08:40:16;;;;;;;70.70;52.15;;;18.00;47.20;;;;;;4976336;28;89121;-75
2022/03/20 08:42:48;;;;;;;72.03;52.60;;;18.00;47.30;;;;;;4982125;28;90908;-72
2022/03/20 08:45:14;;;;;;;72.20;52.70;;;18.00;47.40;;;;;;4978780;28;89823;-75
2022/03/20 08:47:41;;;;;;;71.43;52.97;;;18.00;47.40;;;;;;4997534;28;91850;-75
2022/03/20 08:50:07;;;;;;;70.68;52.22;;;18.10;47.20;;;;;;5003229;28;90835;-75
2022/03/20 08:52:33;;;;;;;71.22;52.25;;;18.00;47.20;;;;;;5002157;28;90207;-76
2022/03/20 08:54:59;;;;;;;72.05;52.67;;;18.10;47.30;;;;;;4994236;28;89959;-75
2022/03/20 08:57:25;;;;;;;72.82;53.38;;;18.10;47.20;;;;;;4991276;28;90458;-74
2022/03/20 08:59:52;;;;;;;72.05;52.97;;;18.10;47.00;;;;;;4983569;28;90814;-72
2022/03/20 09:02:18;;;;;;;72.78;52.92;;;18.10;47.20;;;;;;4982473;28;89637;-74
2022/03/20 09:04:43;;;;;;;73.53;54.55;;;18.20;47.10;;;;;;4983702;28;89481;-72
2022/03/20 09:07:09;;;;;;;72.30;53.17;;;18.20;47.00;;;;;;4985281;28;92892;-73
2022/03/20 09:09:35;;;;;;;72.90;52.97;;;18.20;47.10;;;;;;4983703;28;94133;-73
2022/03/20 09:12:01;;;;;;;73.07;53.00;;;18.20;47.10;;;;;;4991477;28;90931;-73
2022/03/20 09:14:27;;;;;;;72.10;52.63;;;18.20;46.90;;;;;;4999713;28;89446;-72
2022/03/20 09:19:37;;;;;;;72.97;53.13;;;18.20;46.90;;;;;;4982022;28;89867;-73
2022/03/20 09:22:06;;;;;;;72.15;52.95;;;18.20;47.00;;;;;;4980228;28;92824;-74
2022/03/20 09:24:32;;;;;;;74.43;52.92;;;18.20;47.00;;;;;;4989589;28;90598;-73
2022/03/20 09:27:00;;;;;;;71.38;52.80;;;18.20;46.90;;;;;;4983989;28;90552;-72
2022/03/20 09:29:26;;;;;;;71.95;53.35;;;18.20;47.00;;;;;;4978607;28;93518;-74
2022/03/20 09:31:52;;;;;;;72.93;52.75;;;18.20;46.90;;;;;;4986806;28;94518;-75
2022/03/20 09:34:17;;;;;;;72.88;53.70;;;18.20;46.90;;;;;;4980385;28;90235;-75
2022/03/20 09:36:43;;;;;;;74.97;53.67;;;18.10;47.00;;;;;;4983971;28;91704;-74
2022/03/20 09:39:09;;;;;;;72.80;52.92;;;18.10;47.10;;;;;;4995151;28;91695;-75
2022/03/20 09:41:39;;;;;;;70.63;52.72;;;18.10;47.80;;;;;;4982800;28;90946;-75
2022/03/20 09:44:06;;;;;;;71.68;52.60;;;18.10;47.20;;;;;;4978923;28;90555;-74
2022/03/20 09:46:32;;;;;;;72.95;53.15;;;18.10;47.30;;;;;;4981331;28;90887;-73
2022/03/20 09:49:00;;;;;;;71.82;53.20;;;18.20;47.30;;;;;;4984620;28;90188;-73
2022/03/20 09:51:26;;;;;;;74.50;53.72;;;18.20;47.40;;;;;;4979814;28;95967;-74
2022/03/20 09:53:52;;;;;;;73.22;52.97;;;18.20;47.30;;;;;;4991043;28;91649;-73
2022/03/20 09:56:18;;;;;;;75.32;54.00;;;18.20;47.30;;;;;;4990321;28;96552;-71
2022/03/20 09:58:43;;;;;;;71.93;53.03;;;18.20;47.30;;;;;;4990647;28;91116;-74
2022/03/20 10:01:09;;;;;;;71.75;53.17;;;18.30;47.30;;;;;;4988647;28;91404;-73
2022/03/20 10:03:35;;;;;;;75.05;54.80;;;18.30;47.50;;;;;;4976792;27;91920;-72
2022/03/20 10:06:17;;;;;;;79.18;54.15;;;18.30;47.60;;;;;;4981165;28;91016;-73
2022/03/20 10:09:02;;;;;;;78.97;54.42;;;18.30;47.80;;;;;;4982370;28;90994;-75
2022/03/20 10:11:28;;;;;;;78.00;53.90;;;18.30;47.90;;;;;;4987559;28;95507;-74
2022/03/20 10:14:18;;;;;;;78.78;55.03;;;18.40;47.70;;;;;;4985762;28;90211;-74
2022/03/20 10:16:48;;;;;;;76.88;54.15;;;18.50;47.70;;;;;;4990137;27;90650;-74
2022/03/20 10:19:23;;;;;;;78.95;54.05;;;18.50;47.60;;;;;;4980287;28;91139;-71
2022/03/20 10:22:02;;;;;;;76.28;53.63;;;18.60;47.30;;;;;;4980323;28;90350;-71
2022/03/20 10:24:30;;;;;;;76.15;54.00;;;18.60;47.20;;;;;;4973303;28;91002;-73
2022/03/20 10:26:59;;;;;;;80.70;54.05;;;18.70;47.10;;;;;;4979241;28;91657;-71
2022/03/20 10:29:25;;;;;;;81.85;54.78;;;18.70;47.10;;;;;;4971012;28;90960;-72
2022/03/20 10:31:52;;;;;;;78.63;54.08;;;18.70;46.90;;;;;;4978219;28;90381;-73
2022/03/20 10:34:19;;;;;;;80.75;53.67;;;18.70;47.10;;;;;;4980089;28;90868;-72
2022/03/20 10:36:46;;;;;;;79.22;54.17;;;18.70;47.20;;;;;;4980938;28;91545;-71
2022/03/20 10:39:19;;;;;;;77.85;54.33;;;18.70;47.20;;;;;;4980485;28;91652;-70
2022/03/20 10:41:46;;;;;;;81.43;54.08;;;18.70;47.20;;;;;;4981946;28;90756;-70
2022/03/20 10:44:23;;;;;;;77.45;53.88;;;18.70;47.20;;;;;;4976055;28;94314;-72
2022/03/20 10:47:12;;;;;;;76.65;53.95;;;18.70;47.20;;;;;;4985038;28;90591;-72
2022/03/20 10:49:40;;;;;;;78.90;54.42;;;18.70;47.20;;;;;;4990976;28;90164;-72
2022/03/20 10:52:17;;;;;;;78.85;54.25;;;18.70;47.20;;;;;;4993387;28;90892;-72
2022/03/20 10:54:51;;;;;;;78.35;53.92;;;18.70;47.20;;;;;;4983968;28;89964;-72
2022/03/20 10:57:17;;;;;;;78.20;53.92;;;18.70;47.30;;;;;;4990635;28;90703;-72
2022/03/20 10:59:55;;;;;;;79.47;54.25;;;18.70;47.20;;;;;;4993812;28;89933;-73
2022/03/20 11:02:23;;;;;;;76.70;54.17;;;18.70;47.30;;;;;;4997919;28;90134;-72
2022/03/20 11:04:49;;;;;;;79.80;53.95;;;18.70;47.30;;;;;;4989129;28;90006;-72
2022/03/20 11:07:17;;;;;;;75.57;53.53;;;18.70;47.20;;;;;;4997919;28;95026;-72
2022/03/20 11:09:51;;;;;;;78.45;53.53;;;18.70;47.20;;;;;;4997000;28;91232;-72
2022/03/20 11:12:24;;;;;;;75.60;53.80;;;18.70;47.20;;;;;;4998395;28;89578;-72
2022/03/20 11:14:51;;;;;;;78.28;55.20;;;18.70;47.20;;;;;;4994843;28;89496;-72
2022/03/20 11:17:21;;;;;;;76.07;54.25;;;18.70;47.00;;;;;;4994436;28;91025;-70
2022/03/20 11:19:53;;;;;;;77.60;55.08;;;18.70;47.10;;;;;;4997199;28;91196;-73
2022/03/20 11:22:21;;;;;;;78.28;55.15;;;18.70;47.10;;;;;;4990745;28;91041;-71
2022/03/20 11:24:50;;;;;;;77.28;54.92;;;18.70;47.00;;;;;;4991061;28;90159;-72
2022/03/20 11:27:24;;;;;;;77.85;54.55;;;18.70;47.00;;;;;;4986172;28;96942;-72
2022/03/20 11:29:55;;;;;;;78.68;54.33;;;18.70;47.00;;;;;;4984843;28;90925;-71
2022/03/20 11:32:21;;;;;;;81.63;56.55;;;18.70;47.10;;;;;;4990159;28;90354;-72
2022/03/20 11:34:48;;;;;;;83.40;57.30;;;18.70;47.30;;;;;;4979789;28;90570;-71
2022/03/20 11:37:15;;;;;;;87.13;58.20;;;18.70;47.30;;;;;;4993148;28;89660;-72
2022/03/20 11:40:21;;;;;;;86.30;58.13;;;18.70;47.50;;;;;;4997252;28;90879;-72
2022/03/20 11:42:48;;;;;;;86.97;59.30;;;18.80;47.80;;;;;;4994238;28;90459;-73
2022/03/20 11:45:24;;;;;;;84.20;58.28;;;18.80;48.40;;;;;;4977103;28;90390;-71
2022/03/20 11:48:13;;;;;;;87.68;59.83;;;18.90;47.80;;;;;;4969884;28;90626;-73
2022/03/20 11:50:44;;;;;;;94.32;63.53;;;18.90;47.80;;;;;;4972380;28;91427;-72
2022/03/20 11:53:11;;;;;;;91.78;64.50;;;18.90;47.90;;;;;;4979122;28;90187;-69
2022/03/20 11:55:38;;;;;;;94.15;65.00;;;18.90;48.10;;;;;;4980346;28;91337;-72
2022/03/20 11:58:12;;;;;;;95.85;64.90;;;19.00;48.40;;;;;;4995561;28;95492;-77
2022/03/20 12:00:40;;;;;;;93.13;64.93;;;19.00;48.60;;;;;;4971967;28;90661;-72
2022/03/20 12:03:09;;;;;;;92.13;64.05;;;19.00;48.60;;;;;;4981570;28;90883;-71
2022/03/20 12:05:41;;;;;;;92.68;63.67;;;19.00;48.70;;;;;;4973501;28;89837;-72
2022/03/20 12:08:16;;;;;;;89.88;64.28;;;19.10;48.90;;;;;;4982082;27;90896;-70
2022/03/20 12:11:01;;;;;;;89.72;63.20;;;19.10;48.90;;;;;;4970526;28;92774;-72
2022/03/20 12:13:53;;;;;;;90.30;62.50;;;19.10;49.10;;;;;;4970118;28;90407;-72
2022/03/20 12:16:52;;;;;;;94.28;61.92;;;19.20;49.10;;;;;;4975578;28;94632;-70
2022/03/20 12:19:24;;;;;;;94.68;62.70;;;19.20;49.20;;;;;;4967522;28;96742;-72
2022/03/20 12:22:01;;;;;;;94.15;62.70;;;19.20;49.10;;;;;;4970600;28;90638;-74
2022/03/20 12:24:37;;;;;;;90.22;62.58;;;19.20;48.90;;;;;;4981659;28;89784;-75
2022/03/20 12:27:24;;;;;;;91.90;63.15;;;19.20;48.90;;;;;;4979227;28;89692;-77
2022/03/20 12:29:50;;;;;;;89.35;62.85;;;19.20;48.90;;;;;;4981305;28;93083;-77
2022/03/20 12:32:18;;;;;;;93.55;63.35;;;19.30;48.80;;;;;;4983744;28;95337;-75
2022/03/20 12:35:04;;;;;;;89.30;62.55;;;19.30;49.00;;;;;;4965720;28;92793;-75
2022/03/20 12:37:29;;;;;;;89.07;62.63;;;19.30;49.00;;;;;;4964765;28;90358;-72
2022/03/20 12:40:04;;;;;;;88.35;62.17;;;19.40;49.00;;;;;;4979342;28;90622;-76
2022/03/20 12:42:31;;;;;;;92.13;66.45;;;19.40;48.80;;;;;;4985630;28;90820;-75
2022/03/20 12:44:57;;;;;;;89.68;65.05;;;19.50;48.90;;;;;;4988190;28;90664;-72
2022/03/20 12:47:25;;;;;;;97.70;65.15;;;19.50;48.80;;;;;;4991086;28;91339;-73
2022/03/20 12:49:56;;;;;;;93.30;64.38;;;19.50;48.70;;;;;;4966688;28;90464;-74
2022/03/20 12:52:24;;;;;;;92.30;64.50;;;19.40;48.50;;;;;;4980806;28;93536;-74
2022/03/20 12:54:58;;;;;;;91.80;63.60;;;19.40;48.40;;;;;;4980565;28;91099;-73
2022/03/20 12:57:47;;;;;;;90.80;63.88;;;19.40;48.30;;;;;;4971180;28;90854;-73
2022/03/20 13:00:19;;;;;;;89.40;63.10;;;19.40;48.40;;;;;;4982270;28;91236;-74
2022/03/20 13:03:06;;;;;;;87.55;63.15;;;19.40;48.30;;;;;;4976032;28;91995;-74